createdAt,value
2018-03-26T00:01:25.262Z,98.60
2018-03-26T00:03:52.756Z,98.80
2018-03-26T00:06:20.264Z,99.10
2018-03-26T00:08:47.766Z,99.20
2018-03-26T00:11:15.264Z,99.40
2018-03-26T00:13:43.534Z,99.60
2018-03-26T00:16:11.808Z,99.70
2018-03-26T00:18:39.311Z,99.70
2018-03-26T00:21:06.840Z,99.60
2018-03-26T00:23:34.333Z,99.70
2018-03-26T00:26:01.831Z,99.70
2018-03-26T00:28:29.332Z,99.90
2018-03-26T00:30:56.852Z,99.90
2018-03-26T00:33:25.125Z,99.90
2018-03-26T00:35:53.387Z,99.90
2018-03-26T00:38:20.896Z,99.90
2018-03-26T00:40:48.403Z,99.90
2018-03-26T00:43:15.907Z,99.90
2018-03-26T00:45:43.419Z,99.90
2018-03-26T00:48:10.930Z,99.90
2018-03-26T00:50:38.423Z,99.90
2018-03-26T00:53:05.922Z,99.90
2018-03-26T00:55:33.433Z,99.90
2018-03-26T00:58:00.939Z,99.90
2018-03-26T01:00:28.438Z,99.90
2018-03-26T01:02:55.943Z,99.90
2018-03-26T01:05:24.208Z,99.90
2018-03-26T01:07:52.480Z,99.90
2018-03-26T01:10:20.007Z,99.90
2018-03-26T01:12:47.515Z,99.90
2018-03-26T01:15:15.771Z,99.90
2018-03-26T01:17:43.270Z,99.90
2018-03-26T01:20:10.768Z,99.90
2018-03-26T01:22:38.270Z,99.90
2018-03-26T01:25:06.523Z,99.50
2018-03-26T01:27:34.028Z,99.50
2018-03-26T01:30:01.545Z,99.30
2018-03-26T01:32:29.158Z,99.00
2018-03-26T01:34:56.734Z,99.10
2018-03-26T01:37:24.297Z,99.30
2018-03-26T01:39:51.844Z,99.40
2018-03-26T01:42:19.380Z,99.40
2018-03-26T01:44:47.686Z,99.20
2018-03-26T01:47:15.245Z,99.10
2018-03-26T01:49:42.792Z,99.30
2018-03-26T01:52:10.366Z,99.50
2018-03-26T01:54:37.964Z,99.50
2018-03-26T01:57:05.572Z,99.40
2018-03-26T01:59:33.161Z,99.10
2018-03-26T02:02:00.744Z,99.00
2018-03-26T02:04:28.312Z,98.80
2018-03-26T02:06:55.860Z,99.00
2018-03-26T02:09:23.426Z,98.80
2018-03-26T02:11:50.972Z,98.80
2018-03-26T02:14:18.580Z,98.90
2018-03-26T02:16:46.873Z,98.60
2018-03-26T02:19:14.409Z,98.60
2018-03-26T02:21:41.970Z,98.40
2018-03-26T02:24:09.518Z,98.40
2018-03-26T02:26:37.121Z,98.90
2018-03-26T02:29:04.604Z,98.80
2018-03-26T02:31:32.136Z,98.90
2018-03-26T02:33:59.691Z,99.10
2018-03-26T02:36:27.258Z,99.10
2018-03-26T02:38:54.814Z,98.90
2018-03-26T02:41:22.367Z,98.80
2018-03-26T02:43:49.934Z,98.90
2018-03-26T02:46:17.489Z,98.90
2018-03-26T02:48:45.046Z,98.70
2018-03-26T02:51:12.597Z,98.50
2018-03-26T02:53:40.141Z,98.30
2018-03-26T02:56:08.484Z,98.60
2018-03-26T02:58:36.029Z,98.60
2018-03-26T03:01:03.646Z,98.70
2018-03-26T03:03:31.965Z,98.90
2018-03-26T03:05:59.541Z,98.90
2018-03-26T03:08:27.084Z,98.90
2018-03-26T03:10:54.657Z,99.10
2018-03-26T03:13:22.204Z,99.20
2018-03-26T03:15:49.802Z,99.20
2018-03-26T03:18:17.324Z,98.80
2018-03-26T03:20:44.871Z,98.90
2018-03-26T03:23:12.413Z,98.90
2018-03-26T03:25:39.984Z,99.10
2018-03-26T03:28:07.547Z,99.30
2018-03-26T03:30:35.127Z,99.50
2018-03-26T03:33:02.701Z,99.60
2018-03-26T03:35:30.252Z,99.80
2018-03-26T03:37:57.857Z,99.90
2018-03-26T03:40:25.404Z,99.90
2018-03-26T03:42:53.727Z,99.90
2018-03-26T03:45:21.349Z,99.90
2018-03-26T03:47:49.713Z,99.90
2018-03-26T03:50:18.037Z,99.90
2018-03-26T03:52:45.589Z,99.90
2018-03-26T03:55:13.132Z,99.80
2018-03-26T03:57:41.453Z,99.60
2018-03-26T04:00:09.092Z,99.60
2018-03-26T04:02:36.607Z,99.80
2018-03-26T04:05:04.985Z,99.90
2018-03-26T04:07:32.531Z,99.90
2018-03-26T04:10:00.077Z,99.90
2018-03-26T04:12:27.636Z,99.90
2018-03-26T04:14:55.212Z,99.90
2018-03-26T04:17:22.798Z,99.90
2018-03-26T04:19:50.346Z,99.90
2018-03-26T04:22:17.898Z,99.90
2018-03-26T04:24:45.425Z,99.90
2018-03-26T04:27:12.970Z,99.90
2018-03-26T04:29:40.566Z,99.90
2018-03-26T04:32:08.225Z,99.90
2018-03-26T04:34:35.742Z,99.90
2018-03-26T04:37:03.306Z,99.90
2018-03-26T04:39:30.891Z,99.90
2018-03-26T04:41:58.443Z,99.90
2018-03-26T04:44:26.020Z,99.90
2018-03-26T04:46:53.572Z,99.90
2018-03-26T04:49:21.125Z,99.90
2018-03-26T04:51:48.666Z,99.90
2018-03-26T04:54:16.238Z,99.90
2018-03-26T04:56:43.817Z,99.90
2018-03-26T04:59:11.430Z,99.90
2018-03-26T05:01:39.745Z,99.90
2018-03-26T05:04:07.327Z,99.90
2018-03-26T05:06:34.937Z,99.90
2018-03-26T05:09:02.574Z,99.90
2018-03-26T05:11:30.188Z,99.90
2018-03-26T05:13:57.731Z,99.90
2018-03-26T05:16:25.425Z,99.90
2018-03-26T05:18:53.045Z,99.60
2018-03-26T05:21:20.594Z,99.90
2018-03-26T05:23:48.163Z,99.90
2018-03-26T05:26:15.733Z,99.90
2018-03-26T05:28:43.357Z,99.90
2018-03-26T05:31:10.962Z,99.90
2018-03-26T05:33:38.680Z,99.90
2018-03-26T05:36:07.066Z,99.70
2018-03-26T05:38:35.427Z,99.50
2018-03-26T05:41:03.028Z,99.50
2018-03-26T05:43:30.612Z,99.20
2018-03-26T05:45:58.968Z,98.20
2018-03-26T05:48:26.513Z,98.20
2018-03-26T05:50:54.094Z,98.00
2018-03-26T05:53:21.628Z,97.90
2018-03-26T05:55:49.201Z,98.00
2018-03-26T05:58:16.760Z,98.00
2018-03-26T06:00:44.480Z,97.30
2018-03-26T06:03:12.066Z,96.10
2018-03-26T06:05:40.936Z,94.80
2018-03-26T06:08:08.500Z,94.80
2018-03-26T06:10:36.034Z,93.60
2018-03-26T06:13:04.338Z,92.70
2018-03-26T06:15:31.934Z,92.70
2018-03-26T06:17:59.423Z,92.80
2018-03-26T06:20:26.963Z,93.40
2018-03-26T06:22:54.527Z,93.10
2018-03-26T06:25:22.111Z,92.90
2018-03-26T06:27:49.705Z,91.60
2018-03-26T06:30:17.295Z,88.90
2018-03-26T06:32:44.903Z,84.70
2018-03-26T06:35:12.465Z,80.90
2018-03-26T06:37:45.797Z,80.10
2018-03-26T06:40:14.134Z,83.30
2018-03-26T06:42:41.704Z,83.30
2018-03-26T06:45:09.308Z,86.30
2018-03-26T06:47:36.944Z,84.20
2018-03-26T06:50:04.516Z,76.50
2018-03-26T06:52:32.850Z,65.50
2018-03-26T06:55:00.404Z,65.50
2018-03-26T06:57:28.003Z,71.10
2018-03-26T06:59:56.387Z,82.20
2018-03-26T07:02:24.003Z,82.10
2018-03-26T07:04:51.635Z,86.80
2018-03-26T07:07:19.280Z,90.00
2018-03-26T07:09:46.837Z,90.60
2018-03-26T07:12:15.201Z,89.70
2018-03-26T07:14:43.501Z,88.60
2018-03-26T07:17:12.764Z,80.20
2018-03-26T07:19:40.307Z,80.10
2018-03-26T07:22:07.945Z,76.90
2018-03-26T07:24:35.549Z,76.40
2018-03-26T07:27:03.336Z,77.40
2018-03-26T07:29:35.625Z,72.00
2018-03-26T07:32:03.316Z,69.90
2018-03-26T07:34:30.976Z,64.70
2018-03-26T07:36:58.502Z,68.70
2018-03-26T07:39:26.114Z,71.20
2018-03-26T07:41:53.669Z,73.70
2018-03-26T07:44:21.217Z,79.20
2018-03-26T07:46:48.793Z,83.80
2018-03-26T07:49:16.436Z,88.90
2018-03-26T07:51:51.286Z,90.00
2018-03-26T07:54:18.885Z,90.40
2018-03-26T07:56:46.452Z,91.00
2018-03-26T07:59:14.024Z,89.20
2018-03-26T08:01:41.790Z,90.10
2018-03-26T08:04:09.380Z,90.50
2018-03-26T08:06:36.923Z,90.80
2018-03-26T08:09:04.472Z,90.30
2018-03-26T08:11:32.053Z,90.00
2018-03-26T08:13:59.756Z,87.90
2018-03-26T08:16:28.109Z,83.20
2018-03-26T08:18:55.697Z,82.80
2018-03-26T08:21:25.415Z,81.10
2018-03-26T08:23:52.965Z,80.90
2018-03-26T08:26:21.343Z,76.60
2018-03-26T08:28:49.662Z,75.40
2018-03-26T08:31:17.282Z,75.30
2018-03-26T08:33:50.147Z,78.80
2018-03-26T08:36:17.695Z,77.20
2018-03-26T08:38:45.244Z,75.40
2018-03-26T08:41:12.819Z,74.70
2018-03-26T08:43:40.360Z,66.80
2018-03-26T08:46:07.966Z,62.00
2018-03-26T08:48:35.558Z,59.40
2018-03-26T08:51:03.165Z,57.30
2018-03-26T08:53:30.701Z,55.10
2018-03-26T08:55:58.298Z,57.70
2018-03-26T08:58:26.621Z,60.40
2018-03-26T09:00:54.981Z,58.60
2018-03-26T09:03:23.894Z,58.60
2018-03-26T09:05:51.541Z,52.20
2018-03-26T09:08:19.073Z,51.40
2018-03-26T09:10:46.605Z,50.70
2018-03-26T09:13:14.171Z,48.90
2018-03-26T09:15:42.497Z,47.80
2018-03-26T09:18:10.058Z,47.80
2018-03-26T09:20:44.632Z,48.20
2018-03-26T09:23:12.168Z,45.10
2018-03-26T09:25:39.981Z,44.90
2018-03-26T09:28:08.780Z,44.30
2018-03-26T09:30:36.420Z,44.30
2018-03-26T09:33:04.078Z,46.10
2018-03-26T09:35:33.036Z,47.20
2018-03-26T09:38:00.601Z,47.20
2018-03-26T09:40:28.221Z,49.50
2018-03-26T09:42:56.548Z,46.80
2018-03-26T09:45:24.219Z,45.90
2018-03-26T09:47:52.521Z,50.30
2018-03-26T09:50:20.076Z,50.50
2018-03-26T09:52:47.602Z,47.30
2018-03-26T09:55:15.150Z,53.40
2018-03-26T09:57:42.724Z,49.10
2018-03-26T10:00:10.273Z,50.60
2018-03-26T10:02:37.834Z,52.30
2018-03-26T10:05:05.397Z,51.90
2018-03-26T10:07:32.959Z,49.20
2018-03-26T10:10:00.536Z,52.20
2018-03-26T10:12:28.846Z,53.90
2018-03-26T10:14:56.409Z,53.40
2018-03-26T10:17:23.967Z,59.90
2018-03-26T10:19:52.730Z,63.70
2018-03-26T10:22:21.199Z,65.20
2018-03-26T10:24:49.519Z,67.40
2018-03-26T10:27:17.066Z,67.40
2018-03-26T10:29:44.645Z,61.90
2018-03-26T10:32:12.209Z,62.10
2018-03-26T10:34:39.776Z,60.10
2018-03-26T10:37:07.402Z,59.20
2018-03-26T10:39:34.988Z,61.70
2018-03-26T10:42:02.552Z,63.20
2018-03-26T10:44:30.139Z,61.40
2018-03-26T10:46:57.792Z,57.70
2018-03-26T10:49:25.384Z,58.90
2018-03-26T10:51:53.700Z,58.20
2018-03-26T10:54:21.261Z,58.00
2018-03-26T10:56:48.828Z,56.80
2018-03-26T10:59:16.381Z,60.00
2018-03-26T11:01:43.940Z,60.90
2018-03-26T11:04:11.480Z,64.60
2018-03-26T11:06:39.001Z,63.20
2018-03-26T11:09:06.612Z,59.50
2018-03-26T11:11:34.210Z,61.20
2018-03-26T11:14:01.813Z,64.90
2018-03-26T11:16:30.164Z,64.20
2018-03-26T11:18:57.712Z,64.10
2018-03-26T11:21:25.268Z,67.70
2018-03-26T11:23:52.817Z,63.90
2018-03-26T11:26:20.396Z,65.30
2018-03-26T11:28:48.716Z,63.60
2018-03-26T11:31:17.064Z,62.10
2018-03-26T11:33:44.616Z,62.00
2018-03-26T11:36:12.228Z,62.40
2018-03-26T11:38:39.826Z,63.30
2018-03-26T11:41:07.393Z,65.60
2018-03-26T11:43:35.000Z,63.70
2018-03-26T11:46:03.369Z,64.00
2018-03-26T11:48:31.703Z,60.10
2018-03-26T11:50:59.262Z,60.00
2018-03-26T11:53:26.816Z,62.60
2018-03-26T11:55:54.388Z,60.80
2018-03-26T11:58:21.928Z,57.60
2018-03-26T12:00:49.516Z,55.50
2018-03-26T12:03:17.058Z,59.30
2018-03-26T12:05:44.618Z,61.80
2018-03-26T12:08:12.168Z,58.60
2018-03-26T12:10:39.746Z,59.60
2018-03-26T12:13:07.336Z,62.90
2018-03-26T12:15:34.897Z,60.40
2018-03-26T12:18:02.468Z,60.40
2018-03-26T12:20:41.759Z,61.00
2018-03-26T12:26:10.223Z,62.10
2018-03-26T12:28:50.414Z,60.30
2018-03-26T12:31:17.910Z,59.60
2018-03-26T12:33:57.788Z,60.10
2018-03-26T12:36:25.286Z,61.90
2018-03-26T12:38:52.778Z,58.80
2018-03-26T12:41:20.274Z,60.00
2018-03-26T12:43:48.157Z,61.10
2018-03-26T12:46:27.590Z,59.00
2018-03-26T12:48:55.149Z,58.30
2018-03-26T12:51:34.470Z,57.60
2018-03-26T12:54:02.919Z,57.20
2018-03-26T12:56:31.310Z,57.80
2018-03-26T12:58:58.794Z,57.70
2018-03-26T13:01:39.066Z,63.50
2018-03-26T13:04:06.642Z,63.40
2018-03-26T13:06:34.159Z,63.20
2018-03-26T13:09:15.021Z,64.10
2018-03-26T13:11:42.525Z,64.10
2018-03-26T13:14:10.031Z,65.20
2018-03-26T13:16:37.522Z,67.00
2018-03-26T13:19:05.035Z,68.60
2018-03-26T13:21:32.550Z,68.50
2018-03-26T13:24:00.043Z,71.60
2018-03-26T13:26:27.550Z,67.30
2018-03-26T13:28:55.828Z,72.40
2018-03-26T13:31:23.427Z,72.40
2018-03-26T13:33:50.950Z,71.40
2018-03-26T13:36:18.464Z,72.70
2018-03-26T13:38:47.971Z,70.40
2018-03-26T13:41:15.586Z,70.10
2018-03-26T13:43:43.114Z,69.40
2018-03-26T13:46:11.362Z,72.10
2018-03-26T13:48:38.854Z,72.40
2018-03-26T13:51:07.105Z,75.40
2018-03-26T13:53:34.585Z,75.30
2018-03-26T13:56:02.848Z,76.20
2018-03-26T13:58:30.438Z,76.20
2018-03-26T14:00:58.691Z,77.00
2018-03-26T14:03:29.590Z,76.90
2018-03-26T14:05:57.086Z,78.80
2018-03-26T14:08:36.514Z,78.00
2018-03-26T14:11:16.088Z,78.10
2018-03-26T14:13:55.646Z,77.60
2018-03-26T14:16:35.074Z,77.30
2018-03-26T14:19:02.587Z,79.40
2018-03-26T14:21:30.530Z,76.90
2018-03-26T14:23:58.106Z,74.40
2018-03-26T14:26:25.601Z,74.30
2018-03-26T14:28:53.114Z,74.20
2018-03-26T14:31:20.606Z,74.30
2018-03-26T14:33:48.092Z,74.60
2018-03-26T14:36:16.352Z,72.70
2018-03-26T14:38:43.835Z,72.50
2018-03-26T14:41:11.326Z,70.80
2018-03-26T14:43:38.810Z,73.50
2018-03-26T14:46:06.301Z,73.60
2018-03-26T14:48:34.880Z,73.70
2018-03-26T14:51:03.129Z,76.10
2018-03-26T14:53:31.568Z,76.10
2018-03-26T14:55:59.058Z,73.80
2018-03-26T14:58:26.545Z,73.70
2018-03-26T15:00:54.037Z,75.00
2018-03-26T15:03:21.527Z,72.90
2018-03-26T15:05:49.014Z,74.00
2018-03-26T15:08:16.498Z,69.60
2018-03-26T15:10:44.013Z,67.80
2018-03-26T15:13:11.666Z,65.50
2018-03-26T15:15:39.158Z,65.10
2018-03-26T15:18:07.415Z,63.40
2018-03-26T15:20:34.901Z,64.00
2018-03-26T15:23:08.830Z,61.80
2018-03-26T15:25:36.317Z,61.90
2018-03-26T15:28:03.811Z,63.80
2018-03-26T15:30:31.304Z,63.80
2018-03-26T15:32:58.794Z,60.40
2018-03-26T15:35:26.289Z,62.70
2018-03-26T15:38:03.902Z,67.30
2018-03-26T15:40:32.151Z,64.80
2018-03-26T15:43:03.654Z,64.80
2018-03-26T15:45:31.143Z,66.10
2018-03-26T15:47:58.634Z,66.50
2018-03-26T15:50:26.886Z,70.60
2018-03-26T15:52:54.378Z,70.40
2018-03-26T15:55:22.721Z,65.60
2018-03-26T15:57:50.214Z,65.60
2018-03-26T16:00:18.470Z,65.20
2018-03-26T16:03:12.626Z,65.10
2018-03-26T16:05:40.115Z,65.30
2018-03-26T16:08:07.608Z,65.80
2018-03-26T16:10:35.109Z,67.10
2018-03-26T16:13:04.577Z,68.20
2018-03-26T16:15:32.105Z,68.80
2018-03-26T16:18:00.359Z,71.00
2018-03-26T16:20:27.841Z,70.70
2018-03-26T16:22:56.166Z,72.50
2018-03-26T16:25:23.726Z,72.40
2018-03-26T16:27:51.236Z,70.70
2018-03-26T16:30:19.530Z,71.40
2018-03-26T16:32:47.128Z,71.40
2018-03-26T16:35:14.630Z,71.60
2018-03-26T16:37:42.896Z,72.70
2018-03-26T16:40:18.146Z,72.60
2018-03-26T16:42:46.408Z,74.00
2018-03-26T16:45:13.893Z,73.90
2018-03-26T16:47:57.138Z,73.90
2018-03-26T16:50:24.820Z,73.80
2018-03-26T16:52:52.616Z,75.50
2018-03-26T16:55:20.138Z,77.50
2018-03-26T16:57:54.594Z,77.50
2018-03-26T17:00:22.138Z,79.30
2018-03-26T17:02:49.719Z,80.60
2018-03-26T17:05:17.288Z,80.00
2018-03-26T17:07:44.906Z,81.80
2018-03-26T17:10:12.489Z,82.20
2018-03-26T17:12:39.978Z,81.60
2018-03-26T17:15:07.478Z,80.80
2018-03-26T17:17:35.022Z,81.60
2018-03-26T17:20:02.527Z,82.10
2018-03-26T17:22:30.027Z,82.80
2018-03-26T17:24:57.523Z,81.70
2018-03-26T17:27:25.070Z,82.40
2018-03-26T17:29:52.547Z,82.20
2018-03-26T17:32:20.851Z,85.10
2018-03-26T17:34:48.546Z,85.10
2018-03-26T17:37:16.115Z,86.60
2018-03-26T17:39:44.490Z,86.60
2018-03-26T17:42:12.092Z,87.20
2018-03-26T17:44:42.954Z,86.80
2018-03-26T17:47:10.446Z,87.40
2018-03-26T17:49:37.935Z,87.10
2018-03-26T17:52:05.428Z,86.50
2018-03-26T17:54:32.953Z,87.00
2018-03-26T17:57:01.208Z,87.40
2018-03-26T17:59:28.697Z,87.30
2018-03-26T18:01:56.955Z,90.10
2018-03-26T18:04:24.442Z,90.10
2018-03-26T18:06:59.751Z,90.40
2018-03-26T18:09:27.238Z,90.20
2018-03-26T18:11:55.494Z,90.90
2018-03-26T18:14:22.996Z,90.90
2018-03-26T18:16:50.478Z,91.10
2018-03-26T18:19:17.965Z,91.00
2018-03-26T18:21:45.450Z,91.00
2018-03-26T18:24:12.942Z,91.60
2018-03-26T18:26:40.429Z,90.80
2018-03-26T18:29:07.918Z,90.80
2018-03-26T18:31:36.174Z,91.30
2018-03-26T18:34:03.658Z,91.30
2018-03-26T18:36:36.829Z,91.00
2018-03-26T18:39:05.118Z,91.20
2018-03-26T18:41:33.508Z,90.80
2018-03-26T18:44:01.022Z,90.80
2018-03-26T18:46:28.541Z,89.90
2018-03-26T18:48:56.770Z,90.70
2018-03-26T18:51:24.255Z,90.70
2018-03-26T18:53:52.506Z,90.00
2018-03-26T18:56:19.987Z,90.20
2018-03-26T18:58:48.246Z,90.10
2018-03-26T19:01:16.566Z,90.90
2018-03-26T19:03:44.058Z,90.90
2018-03-26T19:06:11.551Z,91.30
2018-03-26T19:08:39.801Z,92.10
2018-03-26T19:11:07.299Z,92.10
2018-03-26T19:13:34.790Z,92.90
2018-03-26T19:16:02.270Z,93.00
2018-03-26T19:18:30.528Z,92.30
2018-03-26T19:20:58.011Z,92.30
2018-03-26T19:23:25.522Z,92.90
2018-03-26T19:25:53.026Z,92.90
2018-03-26T19:28:20.955Z,92.60
2018-03-26T19:30:48.474Z,91.90
2018-03-26T19:33:15.953Z,91.70
2018-03-26T19:35:43.425Z,92.90
2018-03-26T19:38:11.674Z,92.90
2018-03-26T19:40:39.147Z,92.80
2018-03-26T19:43:06.625Z,92.60
2018-03-26T19:45:34.100Z,92.20
2018-03-26T19:48:01.593Z,92.10
2018-03-26T19:50:29.915Z,91.40
2018-03-26T19:55:49.848Z,92.10
2018-03-26T19:58:17.324Z,92.80
2018-03-26T20:00:44.788Z,92.50
2018-03-26T20:03:12.285Z,92.70
2018-03-26T20:05:39.748Z,92.70
2018-03-26T20:08:07.231Z,92.90
2018-03-26T20:10:35.062Z,92.80
2018-03-26T20:13:03.284Z,92.20
2018-03-26T20:15:30.764Z,92.20
2018-03-26T20:17:58.240Z,92.50
2018-03-26T20:20:27.626Z,92.20
2018-03-26T20:22:55.136Z,92.10
2018-03-26T20:25:22.610Z,92.00
2018-03-26T20:27:50.848Z,92.80
2018-03-26T20:30:18.323Z,92.80
2018-03-26T20:32:45.788Z,93.00
2018-03-26T20:35:13.300Z,92.50
2018-03-26T20:37:41.107Z,92.70
2018-03-26T20:40:08.583Z,92.70
2018-03-26T20:42:36.077Z,92.70
2018-03-26T20:45:03.608Z,92.70
2018-03-26T20:47:31.145Z,92.70
2018-03-26T20:49:58.653Z,92.70
2018-03-26T20:52:26.140Z,92.70
2018-03-26T20:54:53.641Z,92.80
2018-03-26T20:57:21.136Z,93.00
2018-03-26T20:59:49.163Z,93.90
2018-03-26T21:02:16.742Z,93.80
2018-03-26T21:04:44.277Z,93.70
2018-03-26T21:07:12.582Z,93.80
2018-03-26T21:09:40.081Z,93.70
2018-03-26T21:12:07.615Z,93.60
2018-03-26T21:14:35.890Z,93.50
2018-03-26T21:17:04.225Z,93.90
2018-03-26T21:19:31.784Z,93.60
2018-03-26T21:21:59.301Z,93.80
2018-03-26T21:24:27.568Z,94.40
2018-03-26T21:26:55.089Z,94.40
2018-03-26T21:29:22.625Z,94.20
2018-03-26T21:31:50.143Z,94.00
2018-03-26T21:34:18.427Z,94.70
2018-03-26T21:36:46.725Z,94.10
2018-03-26T21:39:14.229Z,94.00
2018-03-26T21:41:52.417Z,93.90
2018-03-26T21:44:19.921Z,94.00
2018-03-26T21:46:47.420Z,94.00
2018-03-26T21:49:14.955Z,93.80
2018-03-26T21:51:42.456Z,93.60
2018-03-26T21:54:09.998Z,93.30
2018-03-26T21:56:37.518Z,93.20
2018-03-26T21:59:05.046Z,93.30
2018-03-26T22:01:32.565Z,93.40
2018-03-26T22:04:00.858Z,94.20
2018-03-26T22:06:29.140Z,94.00
2018-03-26T22:08:57.463Z,93.90
2018-03-26T22:11:25.022Z,93.90
2018-03-26T22:13:53.317Z,93.80
2018-03-26T22:16:20.813Z,93.80
2018-03-26T22:18:48.357Z,93.90
2018-03-26T22:21:15.869Z,93.90
2018-03-26T22:23:43.406Z,94.40
2018-03-26T22:26:11.000Z,94.40
2018-03-26T22:28:38.524Z,94.30
2018-03-26T22:31:06.818Z,94.30
2018-03-26T22:33:35.257Z,94.50
2018-03-26T22:36:02.763Z,94.50
2018-03-26T22:38:30.235Z,94.30
2018-03-26T22:40:57.921Z,94.60
2018-03-26T22:43:26.222Z,94.00
2018-03-26T22:45:54.672Z,93.70
2018-03-26T22:48:22.285Z,93.70
2018-03-26T22:50:50.580Z,94.60
2018-03-26T22:53:18.117Z,94.60
2018-03-26T22:55:45.676Z,94.30
2018-03-26T22:58:13.203Z,94.70
2018-03-26T23:00:40.755Z,95.40
2018-03-26T23:03:09.115Z,96.10
2018-03-26T23:05:36.708Z,96.00
2018-03-26T23:08:04.224Z,96.30
2018-03-26T23:10:31.769Z,96.40
2018-03-26T23:13:00.048Z,96.50
2018-03-26T23:15:28.333Z,96.60
2018-03-26T23:17:56.613Z,96.60
2018-03-26T23:20:27.707Z,96.50
2018-03-26T23:22:55.290Z,96.20
2018-03-26T23:25:22.799Z,96.60
2018-03-26T23:27:50.326Z,96.00
2018-03-26T23:30:17.886Z,96.10
2018-03-26T23:32:45.388Z,96.10
2018-03-26T23:35:12.942Z,96.30
2018-03-26T23:37:40.433Z,96.10
2018-03-26T23:40:07.952Z,96.50
2018-03-26T23:42:35.472Z,96.50
2018-03-26T23:45:03.005Z,96.40
2018-03-26T23:47:30.509Z,96.00
2018-03-26T23:49:58.063Z,96.00
2018-03-26T23:52:25.565Z,95.90
2018-03-26T23:54:53.099Z,95.70
2018-03-26T23:57:20.626Z,95.90
2018-03-26T23:59:48.128Z,95.80
